Time;durP1;ratioP1;P1;durP2;ratioP2;P2;SDS_P1;SDS_P2;PMS_P1;PMS_P2;Temp;Humidity;BMP_temperature;BMP_pressure;BME280_temperature;BME280_humidity;BME280_pressure;Samples;Min_cycle;Max_cycle;Signal;HPM_P1;HPM_P2
2022/06/17 00:00:46;;;;;;;2.42;1.63;;;20.40;43.30;;;;;;5038178;28;20049;-49
2022/06/17 00:03:15;;;;;;;2.88;1.35;;;20.40;43.50;;;;;;5041755;28;20056;-51
2022/06/17 00:05:43;;;;;;;2.20;1.48;;;20.30;43.50;;;;;;5039621;28;20061;-53
2022/06/17 00:08:16;;;;;;;1.92;1.30;;;20.30;43.40;;;;;;5041076;28;20048;-52
2022/06/17 00:10:43;;;;;;;4.85;2.20;;;20.20;43.30;;;;;;5036737;28;20060;-52
2022/06/17 00:13:14;;;;;;;3.90;2.17;;;20.20;43.20;;;;;;5038492;28;20063;-51
2022/06/17 00:15:45;;;;;;;2.75;1.90;;;20.20;43.50;;;;;;5037839;28;20061;-50
2022/06/17 00:18:13;;;;;;;2.47;1.40;;;20.20;43.60;;;;;;5039083;28;20132;-49
2022/06/17 00:20:42;;;;;;;5.30;1.45;;;20.10;43.60;;;;;;5038553;28;20049;-51
2022/06/17 00:23:12;;;;;;;3.33;1.48;;;20.10;43.80;;;;;;5040399;28;20057;-52
2022/06/17 00:25:41;;;;;;;2.42;1.40;;;20.00;43.90;;;;;;5038183;28;20064;-51
2022/06/17 00:28:11;;;;;;;2.60;1.55;;;20.00;44.00;;;;;;5040350;28;20060;-53
2022/06/17 00:30:39;;;;;;;2.20;1.60;;;20.00;44.10;;;;;;5038083;28;20060;-49
2022/06/17 00:33:07;;;;;;;2.20;1.40;;;20.00;44.20;;;;;;5041137;28;20075;-52
2022/06/17 00:35:39;;;;;;;1.95;1.40;;;19.90;44.30;;;;;;5040939;28;20049;-53
2022/06/17 00:38:13;;;;;;;3.97;1.88;;;19.90;44.50;;;;;;5040317;28;20065;-53
2022/06/17 00:40:40;;;;;;;3.95;1.70;;;19.80;44.60;;;;;;5034370;28;20500;-52
2022/06/17 00:43:25;;;;;;;1.50;1.33;;;19.80;44.30;;;;;;5039848;28;20057;-54
2022/06/17 00:46:05;;;;;;;4.68;1.38;;;19.80;44.50;;;;;;5038699;28;20052;-52
2022/06/17 00:48:38;;;;;;;2.28;1.50;;;19.80;44.60;;;;;;5038649;28;20057;-55
2022/06/17 00:51:13;;;;;;;5.28;1.65;;;19.70;44.70;;;;;;5038290;28;20056;-52
2022/06/17 00:53:47;;;;;;;3.22;1.70;;;19.70;44.70;;;;;;5039762;28;20537;-51
2022/06/17 00:56:20;;;;;;;6.10;1.55;;;19.60;44.70;;;;;;5036062;28;20077;-52
2022/06/17 00:59:00;;;;;;;3.35;2.00;;;19.60;45.20;;;;;;5032065;28;20057;-51
2022/06/17 01:01:30;;;;;;;3.40;1.70;;;19.60;44.90;;;;;;5036946;28;20076;-54
2022/06/17 01:04:02;;;;;;;2.78;1.85;;;19.50;44.80;;;;;;5033261;28;20049;-54
2022/06/17 01:06:35;;;;;;;2.35;1.60;;;19.50;45.10;;;;;;5040310;28;20057;-55
2022/06/17 01:11:57;;;;;;;2.97;1.45;;;19.40;45.30;;;;;;5043608;28;20060;-54
2022/06/17 01:14:25;;;;;;;2.30;1.48;;;19.40;45.10;;;;;;5039539;28;20040;-54
2022/06/17 01:16:55;;;;;;;2.65;1.50;;;19.40;45.10;;;;;;5030021;28;20520;-56
2022/06/17 01:19:29;;;;;;;3.72;1.80;;;19.40;45.10;;;;;;5038987;28;20053;-54
2022/06/17 01:22:09;;;;;;;2.83;1.70;;;19.30;45.40;;;;;;5035829;28;20053;-55
2022/06/17 01:24:38;;;;;;;2.03;1.60;;;19.30;45.50;;;;;;5037829;28;20425;-54
2022/06/17 01:27:06;;;;;;;4.10;1.80;;;19.30;45.50;;;;;;5038741;28;20060;-56
2022/06/17 01:29:34;;;;;;;3.67;1.63;;;19.30;45.60;;;;;;5030968;28;21395;-56
2022/06/17 01:32:03;;;;;;;3.85;1.70;;;19.30;45.70;;;;;;5035800;28;20064;-54
2022/06/17 01:34:30;;;;;;;4.18;1.90;;;19.20;45.80;;;;;;5038772;28;20489;-55
2022/06/17 01:36:58;;;;;;;3.72;1.50;;;19.20;45.90;;;;;;5038866;28;20063;-55
2022/06/17 01:39:26;;;;;;;2.78;1.58;;;19.20;45.90;;;;;;5031207;28;20064;-53
2022/06/17 01:41:56;;;;;;;2.60;1.50;;;19.20;45.90;;;;;;5016224;28;20049;-54
2022/06/17 01:44:27;;;;;;;3.20;1.73;;;19.20;46.60;;;;;;5020035;28;20068;-56
2022/06/17 01:46:57;;;;;;;3.05;1.80;;;19.10;46.10;;;;;;5017654;28;20061;-53
2022/06/17 01:49:30;;;;;;;5.65;2.33;;;19.10;46.10;;;;;;5017356;28;20049;-54
2022/06/17 01:52:01;;;;;;;2.25;1.65;;;19.10;46.10;;;;;;5019478;28;20060;-55
2022/06/17 01:54:32;;;;;;;2.00;1.52;;;19.10;46.30;;;;;;5022697;28;20049;-56
2022/06/17 01:57:04;;;;;;;2.25;1.70;;;19.10;46.40;;;;;;5021477;28;20049;-54
2022/06/17 01:59:37;;;;;;;4.75;2.25;;;19.00;46.40;;;;;;5021270;28;20053;-53
2022/06/17 02:02:06;;;;;;;2.97;1.70;;;19.00;46.60;;;;;;5018649;28;20087;-54
2022/06/17 02:04:37;;;;;;;3.65;1.77;;;19.00;46.60;;;;;;5024504;28;20049;-56
2022/06/17 02:07:14;;;;;;;2.17;1.73;;;19.00;46.60;;;;;;5022300;28;20057;-54
2022/06/17 02:09:42;;;;;;;2.60;1.50;;;18.90;46.70;;;;;;5022857;28;20428;-55
2022/06/17 02:12:14;;;;;;;3.35;2.03;;;18.90;46.70;;;;;;5021079;28;20062;-53
2022/06/17 02:14:42;;;;;;;3.08;1.73;;;18.90;46.80;;;;;;5024191;28;20053;-55
2022/06/17 02:17:10;;;;;;;2.30;1.77;;;18.80;46.80;;;;;;5021623;28;20057;-53
2022/06/17 02:19:42;;;;;;;3.70;1.73;;;18.80;46.80;;;;;;5015609;28;20095;-55
2022/06/17 02:22:14;;;;;;;2.60;1.73;;;18.80;47.00;;;;;;5022362;28;20064;-55
2022/06/17 02:24:43;;;;;;;2.85;1.80;;;18.70;47.10;;;;;;5022648;28;20050;-55
2022/06/17 02:27:15;;;;;;;3.40;1.67;;;18.70;47.10;;;;;;5019865;28;20053;-55
2022/06/17 02:29:45;;;;;;;2.38;1.65;;;18.70;47.30;;;;;;5023721;28;20643;-54
2022/06/17 02:32:13;;;;;;;3.15;1.70;;;18.60;47.70;;;;;;5020575;28;20057;-56
2022/06/17 02:34:55;;;;;;;3.30;1.90;;;18.60;47.30;;;;;;5022517;28;20053;-55
2022/06/17 02:37:24;;;;;;;2.97;1.85;;;18.60;47.50;;;;;;5022064;28;20066;-55
2022/06/17 02:39:55;;;;;;;7.38;2.08;;;18.50;47.30;;;;;;5025693;28;20053;-53
2022/06/17 02:42:28;;;;;;;2.80;1.70;;;18.50;47.40;;;;;;5037581;28;20064;-54
2022/06/17 02:45:00;;;;;;;2.67;1.93;;;18.40;47.50;;;;;;5043495;28;20048;-56
2022/06/17 02:47:29;;;;;;;3.17;2.13;;;18.40;47.60;;;;;;5040512;28;20492;-53
2022/06/17 02:49:56;;;;;;;3.13;2.20;;;18.40;47.50;;;;;;5043030;28;20052;-52
2022/06/17 02:52:30;;;;;;;3.42;1.73;;;18.30;47.60;;;;;;5039657;28;20068;-54
2022/06/17 02:55:01;;;;;;;2.70;1.67;;;18.30;47.70;;;;;;5042090;28;20057;-52
2022/06/17 02:57:31;;;;;;;2.88;1.60;;;18.30;47.80;;;;;;5041307;28;20063;-53
2022/06/17 03:00:05;;;;;;;4.70;2.20;;;18.20;47.80;;;;;;5043068;28;20053;-55
2022/06/17 03:02:37;;;;;;;3.80;2.00;;;18.20;48.00;;;;;;5039157;28;20061;-53
2022/06/17 03:05:11;;;;;;;6.82;2.60;;;18.20;48.10;;;;;;5040942;28;20049;-54
2022/06/17 03:07:39;;;;;;;3.00;2.05;;;18.20;48.00;;;;;;5041746;28;20053;-54
2022/06/17 03:10:13;;;;;;;4.28;2.17;;;18.10;48.10;;;;;;5042256;28;20068;-55
2022/06/17 03:12:44;;;;;;;3.00;1.70;;;18.00;48.20;;;;;;5038792;28;20497;-55
2022/06/17 03:15:15;;;;;;;3.38;2.10;;;18.10;48.40;;;;;;5038985;28;20049;-55
2022/06/17 03:17:44;;;;;;;4.57;2.08;;;18.00;48.40;;;;;;5042034;28;20060;-52
2022/06/17 03:20:18;;;;;;;3.75;1.90;;;18.00;48.50;;;;;;5041360;28;20080;-53
2022/06/17 03:22:50;;;;;;;2.60;2.08;;;18.00;48.70;;;;;;5039750;28;20405;-53
2022/06/17 03:25:24;;;;;;;3.85;2.72;;;18.00;48.70;;;;;;5041097;28;20052;-55
2022/06/17 03:27:57;;;;;;;6.05;2.22;;;17.90;48.80;;;;;;5041270;28;20396;-53
2022/06/17 03:30:29;;;;;;;5.68;2.22;;;17.90;48.80;;;;;;5039611;28;20052;-52
2022/06/17 03:33:05;;;;;;;3.28;2.05;;;17.90;48.80;;;;;;5041501;28;20068;-52
2022/06/17 03:35:34;;;;;;;5.78;2.15;;;17.90;48.90;;;;;;5039877;28;20398;-54
2022/06/17 03:38:08;;;;;;;6.53;2.35;;;17.80;48.90;;;;;;5040217;28;20487;-53
2022/06/17 03:40:40;;;;;;;5.22;2.83;;;17.80;49.10;;;;;;5038154;28;20057;-52
2022/06/17 03:43:13;;;;;;;3.42;1.90;;;17.80;49.10;;;;;;5041367;28;20052;-55
2022/06/17 03:45:52;;;;;;;2.08;1.88;;;17.80;49.20;;;;;;5040337;28;20056;-55
2022/06/17 03:48:28;;;;;;;4.05;1.75;;;17.80;49.20;;;;;;5037675;28;20053;-53
2022/06/17 03:50:56;;;;;;;3.38;2.03;;;17.80;49.20;;;;;;5038365;28;20053;-53
2022/06/17 03:53:26;;;;;;;3.63;2.42;;;17.80;49.20;;;;;;5040795;28;20607;-54
2022/06/17 03:55:57;;;;;;;4.20;2.10;;;17.80;49.40;;;;;;5038540;28;20048;-55
2022/06/17 03:58:27;;;;;;;5.38;2.10;;;17.70;49.30;;;;;;5041319;28;20055;-55
2022/06/17 04:00:59;;;;;;;3.08;2.20;;;17.80;49.40;;;;;;5037529;28;20060;-52
2022/06/17 04:03:31;;;;;;;3.53;1.80;;;17.80;49.70;;;;;;5038985;28;20048;-51
2022/06/17 04:06:01;;;;;;;4.25;2.75;;;17.70;49.60;;;;;;5038993;28;20048;-55
2022/06/17 04:08:29;;;;;;;4.32;1.95;;;17.70;50.10;;;;;;5039801;28;20048;-54
2022/06/17 04:10:56;;;;;;;3.53;2.35;;;17.70;49.60;;;;;;5038036;28;20049;-55
2022/06/17 04:13:29;;;;;;;2.75;1.92;;;17.70;49.70;;;;;;5037193;28;20496;-56
2022/06/17 04:16:05;;;;;;;4.57;2.30;;;17.70;49.80;;;;;;5035231;28;20591;-55
2022/06/17 04:18:34;;;;;;;4.30;2.97;;;17.70;50.00;;;;;;5033600;28;20064;-51
2022/06/17 04:21:06;;;;;;;10.48;2.97;;;17.70;50.30;;;;;;5037110;28;20436;-53
2022/06/17 04:23:36;;;;;;;5.40;2.20;;;17.70;50.10;;;;;;5039634;28;20985;-53
2022/06/17 04:26:07;;;;;;;4.30;2.65;;;17.70;50.10;;;;;;5028744;28;20057;-55
2022/06/17 04:28:39;;;;;;;2.83;2.00;;;17.70;50.30;;;;;;5041320;28;20053;-52
2022/06/17 04:31:10;;;;;;;4.38;2.35;;;17.70;50.30;;;;;;5037806;28;20437;-55
2022/06/17 04:33:43;;;;;;;4.13;1.85;;;17.70;50.30;;;;;;5039494;28;20082;-53
2022/06/17 04:36:15;;;;;;;5.10;2.10;;;17.70;50.40;;;;;;5034545;28;20045;-54
2022/06/17 04:38:53;;;;;;;2.90;2.22;;;17.70;50.50;;;;;;5038814;28;20063;-53
2022/06/17 04:41:24;;;;;;;3.88;2.40;;;17.70;50.60;;;;;;5034155;28;20052;-52
2022/06/17 04:43:56;;;;;;;3.38;1.90;;;17.70;50.50;;;;;;5040760;28;20057;-52
2022/06/17 04:46:28;;;;;;;3.38;1.85;;;17.70;50.60;;;;;;5038236;28;20068;-53
2022/06/17 04:48:58;;;;;;;67.00;31.92;;;17.70;50.70;;;;;;5038401;28;20049;-53
2022/06/17 04:51:26;;;;;;;27.88;15.30;;;17.80;50.70;;;;;;5036857;28;20056;-55
2022/06/17 04:53:54;;;;;;;13.43;7.15;;;17.80;50.80;;;;;;5040859;28;20072;-53
2022/06/17 04:56:33;;;;;;;6.25;3.97;;;17.80;50.70;;;;;;5038975;28;20060;-53
2022/06/17 04:59:17;;;;;;;3.67;2.67;;;17.80;50.90;;;;;;5039462;28;20107;-53
2022/06/17 05:01:46;;;;;;;3.30;2.38;;;17.80;50.90;;;;;;5035884;28;20068;-53
2022/06/17 05:04:14;;;;;;;4.05;2.22;;;17.80;50.80;;;;;;5037984;28;20059;-55
2022/06/17 05:06:41;;;;;;;3.83;2.00;;;17.90;51.00;;;;;;5037402;28;20057;-53
2022/06/17 05:09:21;;;;;;;3.22;2.40;;;17.80;51.00;;;;;;5040430;28;20057;-56
2022/06/17 05:11:52;;;;;;;4.38;2.05;;;17.90;51.40;;;;;;5034836;28;20626;-52
2022/06/17 05:14:30;;;;;;;4.03;2.30;;;17.90;51.30;;;;;;5037702;28;20049;-53
2022/06/17 05:16:58;;;;;;;3.17;1.67;;;17.90;51.50;;;;;;5035119;28;20064;-53
2022/06/17 05:19:26;;;;;;;3.58;1.98;;;18.00;51.40;;;;;;5035773;28;20080;-53
2022/06/17 05:21:53;;;;;;;2.50;1.98;;;18.00;51.50;;;;;;5035654;28;20056;-54
2022/06/17 05:24:22;;;;;;;3.10;2.17;;;18.00;51.60;;;;;;5037215;28;20056;-53
2022/06/17 05:26:51;;;;;;;3.17;2.10;;;18.10;51.70;;;;;;5036427;28;20045;-52
2022/06/17 05:29:18;;;;;;;4.40;2.17;;;18.10;51.80;;;;;;5038438;28;20056;-56
2022/06/17 05:31:49;;;;;;;3.50;2.38;;;18.20;52.00;;;;;;5031166;28;20053;-53
2022/06/17 05:34:17;;;;;;;3.08;2.03;;;18.20;52.10;;;;;;5031535;28;20053;-53
2022/06/17 05:36:44;;;;;;;4.38;2.30;;;18.30;52.10;;;;;;5035788;28;20493;-52
2022/06/17 05:39:12;;;;;;;3.15;2.60;;;18.30;52.10;;;;;;5029740;28;20049;-53
2022/06/17 05:41:39;;;;;;;2.47;2.17;;;18.40;52.30;;;;;;5025286;28;20049;-54
2022/06/17 05:44:07;;;;;;;3.15;2.15;;;18.40;52.20;;;;;;5032620;28;20377;-53
2022/06/17 05:46:34;;;;;;;3.83;1.88;;;18.40;52.00;;;;;;5021962;28;20301;-53
2022/06/17 05:49:03;;;;;;;3.10;2.10;;;18.50;52.10;;;;;;5019551;28;20057;-54
2022/06/17 05:51:31;;;;;;;2.78;2.13;;;18.60;52.30;;;;;;5016121;28;20061;-54
2022/06/17 05:53:58;;;;;;;4.25;2.60;;;18.70;52.20;;;;;;5029593;28;20057;-53
2022/06/17 05:56:26;;;;;;;3.47;2.25;;;18.70;52.20;;;;;;5023223;28;20489;-53
2022/06/17 05:58:53;;;;;;;3.28;2.17;;;18.80;52.10;;;;;;5024271;28;20060;-55
2022/06/17 06:01:21;;;;;;;3.75;2.60;;;18.80;52.10;;;;;;5023866;28;20680;-51
2022/06/17 06:03:48;;;;;;;7.10;2.33;;;18.90;52.10;;;;;;5022942;28;20053;-57
2022/06/17 06:06:17;;;;;;;4.28;2.20;;;19.00;51.90;;;;;;5024755;28;20424;-55
2022/06/17 06:08:44;;;;;;;3.83;2.60;;;19.00;52.00;;;;;;5023773;28;20420;-56
2022/06/17 06:11:12;;;;;;;4.28;2.28;;;19.10;51.80;;;;;;5020787;28;20087;-58
2022/06/17 06:13:39;;;;;;;7.97;3.15;;;19.20;51.80;;;;;;5024064;28;20129;-56
2022/06/17 06:16:08;;;;;;;5.38;2.25;;;19.30;52.10;;;;;;5032231;28;20045;-58
2022/06/17 06:18:39;;;;;;;5.75;3.00;;;19.30;52.00;;;;;;5037577;28;20053;-58
2022/06/17 06:21:07;;;;;;;3.95;2.42;;;19.40;52.00;;;;;;5031413;28;20060;-58
2022/06/17 06:23:37;;;;;;;4.40;2.30;;;19.50;52.00;;;;;;5027587;28;20064;-57
2022/06/17 06:26:07;;;;;;;5.63;2.53;;;19.60;51.90;;;;;;5033856;28;20408;-55
2022/06/17 06:28:35;;;;;;;5.55;2.22;;;19.70;51.90;;;;;;5039106;28;20053;-56
2022/06/17 06:31:07;;;;;;;4.78;2.17;;;19.70;51.80;;;;;;5032052;28;20049;-58
2022/06/17 06:33:34;;;;;;;4.60;1.73;;;19.80;52.10;;;;;;5017807;28;20790;-54
2022/06/17 06:36:02;;;;;;;4.97;2.13;;;19.90;51.90;;;;;;5028370;28;20385;-57
2022/06/17 06:38:29;;;;;;;4.88;2.17;;;20.00;51.60;;;;;;5029445;28;20053;-58
2022/06/17 06:40:58;;;;;;;7.10;2.00;;;20.10;51.50;;;;;;5022029;28;20049;-54
2022/06/17 06:43:26;;;;;;;6.38;2.22;;;20.20;51.30;;;;;;5026372;28;20100;-58
2022/06/17 06:45:54;;;;;;;8.73;2.17;;;20.20;51.20;;;;;;5031470;28;20060;-56
2022/06/17 06:48:25;;;;;;;3.00;2.20;;;20.30;51.50;;;;;;5034679;28;20059;-55
2022/06/17 06:50:52;;;;;;;3.58;2.00;;;20.40;51.60;;;;;;5026189;28;20694;-58
2022/06/17 06:53:20;;;;;;;3.75;2.00;;;20.50;51.40;;;;;;5035159;28;20441;-58
2022/06/17 06:55:48;;;;;;;5.63;2.20;;;20.60;51.00;;;;;;5032800;28;20401;-57
2022/06/17 06:58:19;;;;;;;3.65;1.75;;;20.60;50.80;;;;;;5032535;28;20057;-54
2022/06/17 07:00:48;;;;;;;8.00;2.13;;;20.60;50.50;;;;;;5038838;28;20055;-55
2022/06/17 07:03:18;;;;;;;3.40;1.92;;;20.70;50.50;;;;;;5043742;28;20056;-56
2022/06/17 07:05:46;;;;;;;4.78;2.20;;;20.80;50.60;;;;;;5041294;28;20045;-55
2022/06/17 07:08:17;;;;;;;3.42;1.98;;;20.80;50.60;;;;;;5041741;28;20049;-58
2022/06/17 07:10:45;;;;;;;5.82;1.77;;;20.80;50.60;;;;;;5040168;28;20057;-58
2022/06/17 07:13:12;;;;;;;2.92;1.92;;;20.90;50.70;;;;;;5042025;28;20513;-54
2022/06/17 07:15:43;;;;;;;7.35;2.10;;;20.90;50.50;;;;;;5041854;28;20053;-56
2022/06/17 07:18:14;;;;;;;3.72;1.92;;;20.90;50.50;;;;;;5040906;28;20060;-58
2022/06/17 07:20:45;;;;;;;3.45;1.90;;;20.90;50.30;;;;;;5041516;28;20056;-56
2022/06/17 07:23:15;;;;;;;3.55;1.98;;;20.90;50.40;;;;;;5041204;28;20045;-54
2022/06/17 07:25:44;;;;;;;5.13;2.10;;;20.90;50.30;;;;;;5041286;28;20068;-54
2022/06/17 07:28:13;;;;;;;5.10;2.30;;;21.00;50.20;;;;;;5041889;28;20068;-57
2022/06/17 07:30:44;;;;;;;4.40;1.77;;;21.00;50.60;;;;;;5040368;28;20069;-56
2022/06/17 07:33:12;;;;;;;8.48;1.98;;;21.10;50.70;;;;;;5041264;28;20053;-55
2022/06/17 07:35:40;;;;;;;3.75;1.90;;;21.10;50.60;;;;;;5039352;28;20057;-58
2022/06/17 07:40:58;;;;;;;4.00;1.98;;;21.20;50.40;;;;;;5040582;28;20052;-57
2022/06/17 07:43:26;;;;;;;5.38;2.10;;;21.20;50.20;;;;;;5042136;28;20060;-50
2022/06/17 07:45:55;;;;;;;2.60;1.48;;;21.30;50.00;;;;;;5037382;28;20045;-49
2022/06/17 07:48:23;;;;;;;4.97;1.77;;;21.40;49.90;;;;;;5037717;28;20521;-54
2022/06/17 07:50:50;;;;;;;5.80;1.85;;;21.50;50.00;;;;;;5036695;28;20055;-54
2022/06/17 07:53:18;;;;;;;3.53;1.85;;;21.50;49.80;;;;;;5035128;28;20687;-53
2022/06/17 07:55:46;;;;;;;4.88;1.52;;;21.60;49.60;;;;;;5034662;28;20618;-52
2022/06/17 07:58:14;;;;;;;5.47;1.90;;;21.70;49.30;;;;;;5039533;28;20063;-53
2022/06/17 08:00:43;;;;;;;3.35;1.40;;;21.80;49.20;;;;;;5037286;28;20421;-53
2022/06/17 08:03:13;;;;;;;5.22;2.00;;;21.80;48.90;;;;;;5026849;28;20516;-48
2022/06/17 08:05:43;;;;;;;4.57;1.42;;;21.90;48.30;;;;;;5032983;28;20064;-57
2022/06/17 08:08:11;;;;;;;3.58;1.65;;;21.90;47.90;;;;;;5021736;28;20049;-58
2022/06/17 08:10:39;;;;;;;4.30;1.80;;;22.10;47.80;;;;;;5027210;28;20053;-53
2022/06/17 08:13:08;;;;;;;1.73;1.30;;;22.10;47.50;;;;;;5039499;28;20053;-51
2022/06/17 08:15:36;;;;;;;3.28;1.52;;;22.20;47.40;;;;;;5036623;28;20481;-55
2022/06/17 08:18:04;;;;;;;4.10;1.70;;;22.30;47.10;;;;;;5040214;28;20053;-55
2022/06/17 08:20:36;;;;;;;2.92;1.63;;;22.30;46.80;;;;;;5035476;28;20060;-51
2022/06/17 08:23:05;;;;;;;4.53;1.80;;;22.40;46.80;;;;;;5037053;28;20070;-58
2022/06/17 08:25:34;;;;;;;5.70;1.70;;;22.50;47.00;;;;;;5038657;28;20056;-48
2022/06/17 08:28:04;;;;;;;3.67;1.70;;;22.50;47.10;;;;;;5038811;28;20420;-50
2022/06/17 08:30:34;;;;;;;2.17;1.15;;;22.60;47.10;;;;;;5035107;28;20057;-52
2022/06/17 08:33:03;;;;;;;4.35;1.80;;;22.70;47.00;;;;;;5027189;28;20087;-55
2022/06/17 08:35:34;;;;;;;4.15;1.80;;;22.70;46.40;;;;;;5028079;28;20053;-53
2022/06/17 08:38:04;;;;;;;3.22;1.50;;;22.80;46.20;;;;;;5030552;28;20075;-51
2022/06/17 08:40:40;;;;;;;2.03;1.40;;;22.90;46.40;;;;;;5030880;28;20060;-49
2022/06/17 08:43:35;;;;;;;2.35;1.60;;;23.00;46.00;;;;;;5035801;28;20053;-49
2022/06/17 08:46:14;;;;;;;5.90;1.63;;;23.00;45.60;;;;;;5031626;28;20401;-52
2022/06/17 08:48:57;;;;;;;3.88;1.30;;;23.10;45.70;;;;;;5038708;28;20052;-47
2022/06/17 08:51:38;;;;;;;6.45;1.90;;;23.20;45.10;;;;;;5033432;28;20068;-53
2022/06/17 08:54:22;;;;;;;3.92;1.63;;;23.30;45.10;;;;;;5034743;28;20060;-53
2022/06/17 08:56:59;;;;;;;3.08;1.38;;;23.30;44.70;;;;;;5030790;28;20056;-51
2022/06/17 08:59:42;;;;;;;4.18;1.67;;;23.40;44.70;;;;;;5034186;28;20501;-53
2022/06/17 09:02:19;;;;;;;5.28;1.73;;;23.50;44.50;;;;;;5037731;28;20061;-52
2022/06/17 09:05:13;;;;;;;4.20;1.50;;;23.60;44.10;;;;;;5037106;28;20061;-49
2022/06/17 09:07:54;;;;;;;1.65;1.20;;;23.60;43.70;;;;;;5032288;28;20063;-56
2022/06/17 09:10:49;;;;;;;1.60;1.10;;;23.70;44.50;;;;;;5030835;28;20052;-51
2022/06/17 09:13:30;;;;;;;3.63;1.73;;;23.80;43.90;;;;;;5039505;28;20072;-51
2022/06/17 09:16:08;;;;;;;3.05;1.55;;;23.90;43.60;;;;;;5035573;28;20072;-52
2022/06/17 09:18:38;;;;;;;2.65;1.30;;;23.90;43.60;;;;;;5040293;28;20045;-51
2022/06/17 09:21:11;;;;;;;5.53;1.60;;;24.00;43.50;;;;;;5038283;28;20067;-52
2022/06/17 09:23:41;;;;;;;3.75;1.52;;;24.10;43.30;;;;;;5040215;28;20052;-49
2022/06/17 09:26:17;;;;;;;3.92;1.60;;;24.10;43.20;;;;;;5038271;28;20451;-52
2022/06/17 09:28:49;;;;;;;4.45;1.10;;;24.20;42.80;;;;;;5038262;28;20045;-51
2022/06/17 09:31:21;;;;;;;2.53;1.33;;;24.20;43.30;;;;;;5038133;28;20045;-49
2022/06/17 09:33:56;;;;;;;3.42;1.45;;;24.30;43.20;;;;;;5037198;28;20052;-50
2022/06/17 09:36:29;;;;;;;2.58;1.20;;;24.40;42.60;;;;;;5038571;28;20049;-48
2022/06/17 09:39:04;;;;;;;12.82;1.60;;;24.40;42.50;;;;;;5036754;28;20404;-52
2022/06/17 09:41:36;;;;;;;2.90;1.48;;;24.50;42.10;;;;;;5036816;28;20060;-56
2022/06/17 09:44:08;;;;;;;3.22;1.20;;;24.50;42.00;;;;;;5038743;28;20057;-49
2022/06/17 09:46:40;;;;;;;2.67;1.50;;;24.60;42.40;;;;;;5034433;28;20044;-49
2022/06/17 09:49:15;;;;;;;1.73;1.30;;;24.70;42.60;;;;;;5035646;28;20382;-51
2022/06/17 09:51:46;;;;;;;2.05;1.30;;;24.70;42.50;;;;;;5038762;28;20064;-49
2022/06/17 09:54:20;;;;;;;3.47;1.48;;;24.80;41.80;;;;;;5041421;28;20057;-45
2022/06/17 09:56:51;;;;;;;;;;;24.80;42.00;;;;;;5039498;28;20416;-49
2022/06/17 09:59:23;;;;;;;2.60;1.10;;;24.90;42.30;;;;;;5038372;28;19925;-50
2022/06/17 10:01:53;;;;;;;1.73;1.00;;;25.00;41.40;;;;;;5038551;28;20059;-51
2022/06/17 10:04:21;;;;;;;1.98;1.38;;;24.90;41.20;;;;;;5038853;28;20049;-50
2022/06/17 10:07:00;;;;;;;2.45;0.93;;;25.00;41.10;;;;;;5040712;28;20416;-48
2022/06/17 10:09:42;;;;;;;2.40;1.10;;;25.00;41.10;;;;;;5040479;28;20053;-52
2022/06/17 10:12:16;;;;;;;2.53;1.40;;;25.00;41.20;;;;;;5038458;28;20056;-46
2022/06/17 10:14:57;;;;;;;1.65;1.00;;;25.00;41.30;;;;;;5044846;28;20056;-51
2022/06/17 10:20:33;;;;;;;3.83;1.38;;;25.00;41.80;;;;;;5049276;28;20064;-55
2022/06/17 10:23:11;;;;;;;3.08;1.33;;;25.10;41.40;;;;;;5044472;28;20063;-52
2022/06/17 10:25:50;;;;;;;4.75;1.30;;;25.10;41.40;;;;;;5043725;28;20099;-51
2022/06/17 10:28:46;;;;;;;2.10;1.10;;;25.20;41.20;;;;;;5044607;28;20057;-50
2022/06/17 10:31:25;;;;;;;1.42;1.13;;;25.30;40.30;;;;;;5043841;28;20052;-56
2022/06/17 10:33:53;;;;;;;2.08;1.00;;;25.30;40.00;;;;;;5039788;28;20065;-58
2022/06/17 10:36:20;;;;;;;5.07;1.38;;;25.40;39.60;;;;;;5043880;28;20056;-51
2022/06/17 10:38:49;;;;;;;1.23;0.90;;;25.40;39.60;;;;;;5043146;28;20382;-48
2022/06/17 10:41:18;;;;;;;3.05;1.52;;;25.50;39.80;;;;;;5041507;28;20053;-53
2022/06/17 10:43:49;;;;;;;1.40;0.90;;;25.60;39.70;;;;;;5044585;28;20057;-48
2022/06/17 10:46:20;;;;;;;2.67;1.20;;;25.60;39.20;;;;;;5041127;28;20067;-51
2022/06/17 10:48:53;;;;;;;5.43;1.27;;;25.60;38.80;;;;;;5043748;28;20060;-50
2022/06/17 10:51:21;;;;;;;3.00;1.07;;;25.70;39.20;;;;;;5040192;28;20496;-53
2022/06/17 10:53:51;;;;;;;5.25;1.23;;;25.80;38.50;;;;;;5044719;28;20468;-49
2022/06/17 10:56:25;;;;;;;2.15;1.20;;;25.80;37.70;;;;;;5042839;28;20416;-51
2022/06/17 10:58:56;;;;;;;;;;;25.80;37.60;;;;;;5041953;28;20068;-51
2022/06/17 11:01:25;;;;;;;2.83;0.93;;;25.90;38.10;;;;;;5041100;28;19932;-48
2022/06/17 11:04:12;;;;;;;2.53;0.80;;;26.00;37.30;;;;;;5044184;28;20064;-46
2022/06/17 11:06:49;;;;;;;2.90;1.40;;;25.90;37.50;;;;;;5042403;28;20060;-54
2022/06/17 11:09:25;;;;;;;1.05;0.82;;;26.00;37.90;;;;;;5043885;28;20115;-53
2022/06/17 11:12:05;;;;;;;3.17;0.93;;;26.00;36.80;;;;;;5041347;28;20053;-50
2022/06/17 11:14:37;;;;;;;3.67;0.98;;;26.00;36.90;;;;;;5043619;28;20056;-48
2022/06/17 11:17:17;;;;;;;2.63;0.80;;;26.10;37.00;;;;;;5041735;28;20049;-52
2022/06/17 11:19:46;;;;;;;1.45;0.70;;;26.10;36.70;;;;;;5042676;28;20362;-54
2022/06/17 11:22:31;;;;;;;3.30;1.00;;;26.20;36.40;;;;;;5042633;28;20492;-55
2022/06/17 11:25:03;;;;;;;6.07;1.30;;;26.20;35.90;;;;;;5041958;28;20061;-50
2022/06/17 11:27:37;;;;;;;2.00;0.98;;;26.20;36.50;;;;;;5040600;28;20061;-50
2022/06/17 11:30:20;;;;;;;;;;;26.30;36.50;;;;;;5041515;28;20049;-53
2022/06/17 11:32:48;;;;;;;1.88;1.00;;;26.40;36.80;;;;;;5041318;28;19994;-48
2022/06/17 11:35:25;;;;;;;4.35;1.15;;;26.50;35.90;;;;;;5041177;28;20060;-54
2022/06/17 11:37:54;;;;;;;1.25;0.75;;;26.50;35.60;;;;;;5042263;28;20489;-51
2022/06/17 11:40:24;;;;;;;2.17;1.27;;;26.60;36.00;;;;;;5040888;28;20064;-47
2022/06/17 11:42:57;;;;;;;1.08;0.75;;;26.60;36.00;;;;;;5043432;28;20056;-49
2022/06/17 11:45:31;;;;;;;1.52;0.80;;;26.70;36.20;;;;;;5039419;28;20065;-45
2022/06/17 11:48:04;;;;;;;3.33;0.70;;;26.70;35.90;;;;;;5041784;28;20063;-46
2022/06/17 11:50:35;;;;;;;1.13;0.80;;;26.80;35.70;;;;;;5040487;28;20052;-44
2022/06/17 11:53:07;;;;;;;2.78;1.17;;;26.80;35.40;;;;;;5043246;28;20412;-46
2022/06/17 11:55:42;;;;;;;3.92;0.82;;;26.80;35.40;;;;;;5041382;28;20524;-48
2022/06/17 11:58:12;;;;;;;0.88;0.80;;;26.80;35.40;;;;;;5039312;28;20519;-51
2022/06/17 12:00:46;;;;;;;2.53;0.93;;;26.90;35.90;;;;;;5041494;28;20053;-49
2022/06/17 12:03:15;;;;;;;2.60;0.90;;;26.90;35.60;;;;;;5042869;28;20508;-53
2022/06/17 12:05:43;;;;;;;1.08;0.82;;;26.90;35.80;;;;;;5042281;28;20482;-47
2022/06/17 12:08:18;;;;;;;1.48;0.90;;;27.00;36.60;;;;;;5040418;28;20420;-49
2022/06/17 12:10:49;;;;;;;3.92;1.00;;;27.00;35.40;;;;;;5040786;28;20053;-49
2022/06/17 12:13:25;;;;;;;2.00;0.85;;;27.10;35.60;;;;;;5041217;28;20064;-49
2022/06/17 12:15:57;;;;;;;1.55;1.00;;;27.10;35.70;;;;;;5042231;28;20049;-49
2022/06/17 12:18:28;;;;;;;1.42;0.80;;;27.20;36.40;;;;;;5039075;28;20056;-48
2022/06/17 12:21:14;;;;;;;1.50;0.90;;;27.20;36.10;;;;;;5040911;28;20052;-50
2022/06/17 12:23:45;;;;;;;1.60;0.95;;;27.30;35.30;;;;;;5042610;28;20056;-47
2022/06/17 12:26:16;;;;;;;0.90;0.85;;;27.40;35.60;;;;;;5041001;28;20060;-47
2022/06/17 12:28:57;;;;;;;2.47;1.10;;;27.50;35.50;;;;;;5040730;28;20041;-51
2022/06/17 12:31:38;;;;;;;2.03;1.05;;;27.50;35.00;;;;;;5039639;28;20064;-46
2022/06/17 12:34:12;;;;;;;2.28;1.00;;;27.50;35.10;;;;;;5039491;28;20527;-47
2022/06/17 12:36:46;;;;;;;4.72;1.05;;;27.60;35.50;;;;;;5039966;28;20409;-48
2022/06/17 12:39:20;;;;;;;1.17;0.90;;;27.60;35.20;;;;;;5039999;28;20053;-50
2022/06/17 12:41:52;;;;;;;;;;;27.70;35.10;;;;;;5036545;28;20053;-51
2022/06/17 12:44:33;;;;;;;3.00;1.05;;;27.70;35.40;;;;;;5028591;28;19924;-48
2022/06/17 12:47:09;;;;;;;3.35;0.73;;;27.80;34.70;;;;;;5024382;28;20068;-51
2022/06/17 12:55:33;;;;;;;1.95;0.90;;;27.90;35.10;;;;;;5029722;28;20067;-45
2022/06/17 12:58:11;;;;;;;2.63;0.98;;;27.90;35.20;;;;;;5026789;28;20052;-47
2022/06/17 13:00:44;;;;;;;4.47;1.20;;;27.90;35.20;;;;;;5031050;28;20053;-50
2022/06/17 13:03:42;;;;;;;3.47;0.90;;;28.00;35.40;;;;;;5031027;28;20404;-51
2022/06/17 13:06:17;;;;;;;2.35;0.82;;;28.00;34.80;;;;;;5027112;28;20053;-54
2022/06/17 13:08:51;;;;;;;3.97;1.02;;;28.10;34.00;;;;;;5030065;28;20056;-55
2022/06/17 13:11:26;;;;;;;2.35;1.08;;;28.10;34.30;;;;;;5028493;28;20420;-52
2022/06/17 13:14:15;;;;;;;4.28;1.90;;;28.10;33.60;;;;;;5036088;28;20044;-54
2022/06/17 13:16:49;;;;;;;5.57;2.03;;;28.10;35.00;;;;;;5014614;28;20057;-51
2022/06/17 13:19:23;;;;;;;1.30;0.98;;;28.20;35.40;;;;;;5028394;28;20708;-53
2022/06/17 13:21:54;;;;;;;;;;;28.30;34.20;;;;;;5031137;28;20048;-47
2022/06/17 13:24:30;;;;;;;2.50;1.20;;;28.40;35.20;;;;;;5030706;28;20380;-56
2022/06/17 13:27:04;;;;;;;1.30;0.80;;;28.50;35.10;;;;;;5032143;28;20060;-50